Time,TemperatureF,DewpointF,PressureIn,WindDirection,WindDirectionDegrees,WindSpeedMPH,WindSpeedGustMPH,Humidity,HourlyPrecipIn,Conditions,Clouds,dailyrainin,SoftwareType,DateUTC
2017-03-26 00:02:00,33.4,29.4,30.37,East,90,0.0,0.0,85,0.00,,,0.00,pywws,2017-03-26 00:02:00,
2017-03-26 00:03:00,33.8,29.5,30.38,East,90,0.0,0.0,84,0.00,,,0.00,pywws,2017-03-26 00:03:00,
2017-03-26 00:04:00,33.4,29.4,30.37,East,90,0.0,0.0,85,0.00,,,0.00,pywws,2017-03-26 00:04:00,
2017-03-26 00:05:00,33.4,29.4,30.37,North,0,0.0,0.0,85,0.00,,,0.00,pywws,2017-03-26 00:05:00,
2017-03-26 00:06:00,33.3,29.2,30.37,North,0,0.0,0.0,85,0.00,,,0.00,pywws,2017-03-26 00:06:00,
2017-03-26 00:07:00,33.3,29.2,30.37,North,0,0.0,0.0,85,0.00,,,0.00,pywws,2017-03-26 00:07:00,
2017-03-26 00:08:00,33.3,29.2,30.37,North,0,0.0,0.0,85,0.00,,,0.00,pywws,2017-03-26 00:08:00,
2017-03-26 00:09:00,33.3,29.2,30.37,North,0,0.0,0.0,85,0.00,,,0.00,pywws,2017-03-26 00:09:00,
2017-03-26 00:10:00,33.3,29.2,30.37,East,90,0.0,0.0,85,0.00,,,0.00,pywws,2017-03-26 00:10:00,
2017-03-26 00:11:00,33.4,29.7,30.37,East,90,0.0,0.0,86,0.00,,,0.00,pywws,2017-03-26 00:11:00,
2017-03-26 00:12:00,33.4,29.7,30.37,East,90,0.0,0.0,86,0.00,,,0.00,pywws,2017-03-26 00:12:00,
2017-03-26 00:13:00,33.4,29.7,30.37,East,90,0.0,0.0,86,0.00,,,0.00,pywws,2017-03-26 00:13:00,
2017-03-26 00:14:00,33.4,29.7,30.37,East,90,0.0,0.0,86,0.00,,,0.00,pywws,2017-03-26 00:14:00,
2017-03-26 00:15:00,33.4,29.7,30.37,SE,135,0.0,0.0,86,0.00,,,0.00,pywws,2017-03-26 00:15:00,
2017-03-26 00:16:00,33.4,29.7,30.37,SE,135,0.0,0.0,86,0.00,,,0.00,pywws,2017-03-26 00:16:00,
2017-03-26 00:17:00,33.4,29.7,30.37,SE,135,0.0,0.0,86,0.00,,,0.00,pywws,2017-03-26 00:17:00,
2017-03-26 00:18:00,33.4,29.7,30.37,SE,135,0.0,0.0,86,0.00,,,0.00,pywws,2017-03-26 00:18:00,
2017-03-26 00:19:00,33.4,29.7,30.37,SW,225,0.0,0.0,86,0.00,,,0.00,pywws,2017-03-26 00:19:00,
2017-03-26 00:20:00,33.3,29.5,30.37,SW,225,0.0,0.0,86,0.00,,,0.00,pywws,2017-03-26 00:20:00,
2017-03-26 00:21:00,33.3,29.5,30.37,NE,45,0.0,0.0,86,0.00,,,0.00,pywws,2017-03-26 00:21:00,
2017-03-26 00:23:00,33.3,29.5,30.37,NE,45,0.0,0.0,86,0.00,,,0.00,pywws,2017-03-26 00:23:00,
2017-03-26 00:25:00,33.3,29.5,30.37,West,270,0.0,0.0,86,0.00,,,0.00,pywws,2017-03-26 00:25:00,
2017-03-26 00:26:00,33.3,29.5,30.37,North,0,0.0,0.0,86,0.00,,,0.00,pywws,2017-03-26 00:26:00,
2017-03-26 00:27:00,33.3,29.5,30.37,West,270,0.0,0.0,86,0.00,,,0.00,pywws,2017-03-26 00:27:00,
2017-03-26 00:28:00,33.3,29.5,30.37,NW,315,0.0,0.0,86,0.00,,,0.00,pywws,2017-03-26 00:28:00,
2017-03-26 00:29:00,33.3,29.5,30.37,North,0,0.0,0.0,86,0.00,,,0.00,pywws,2017-03-26 00:29:00,
2017-03-26 00:30:00,33.4,29.7,30.37,North,0,0.0,0.0,86,0.00,,,0.00,pywws,2017-03-26 00:30:00,
2017-03-26 00:31:00,33.4,29.7,30.37,East,90,0.0,0.0,86,0.00,,,0.00,pywws,2017-03-26 00:31:00,
2017-03-26 00:32:00,33.4,29.7,30.37,East,90,0.0,0.0,86,0.00,,,0.00,pywws,2017-03-26 00:32:00,
2017-03-26 00:33:00,33.6,29.9,30.37,East,90,0.0,0.0,86,0.00,,,0.00,pywws,2017-03-26 00:33:00,
2017-03-26 00:34:00,33.6,29.9,30.37,East,90,0.0,0.0,86,0.00,,,0.00,pywws,2017-03-26 00:34:00,
2017-03-26 00:35:00,33.6,29.9,30.37,East,90,0.0,0.0,86,0.00,,,0.00,pywws,2017-03-26 00:35:00,
2017-03-26 00:36:00,33.6,29.9,30.37,East,90,0.0,0.0,86,0.00,,,0.00,pywws,2017-03-26 00:36:00,
2017-03-26 00:37:00,33.8,30.1,30.37,East,90,0.0,0.0,86,0.00,,,0.00,pywws,2017-03-26 00:37:00,
2017-03-26 00:38:00,33.8,30.1,30.37,East,90,0.0,0.0,86,0.00,,,0.00,pywws,2017-03-26 00:38:00,
2017-03-26 00:39:00,33.8,30.1,30.37,East,90,0.0,0.0,86,0.00,,,0.00,pywws,2017-03-26 00:39:00,
2017-03-26 00:40:00,33.8,30.1,30.37,East,90,0.0,0.0,86,0.00,,,0.00,pywws,2017-03-26 00:40:00,
2017-03-26 00:41:00,33.8,30.1,30.37,East,90,0.0,0.0,86,0.00,,,0.00,pywws,2017-03-26 00:41:00,
2017-03-26 00:42:00,33.8,30.1,30.37,East,90,0.0,0.0,86,0.00,,,0.00,pywws,2017-03-26 00:42:00,
2017-03-26 00:43:00,34.0,30.2,30.37,East,90,0.0,0.0,86,0.00,,,0.00,pywws,2017-03-26 00:43:00,
2017-03-26 00:44:00,34.0,30.2,30.37,East,90,0.0,0.0,86,0.00,,,0.00,pywws,2017-03-26 00:44:00,
2017-03-26 00:45:00,34.0,30.2,30.36,East,90,0.0,0.0,86,0.00,,,0.00,pywws,2017-03-26 00:45:00,
2017-03-26 00:46:00,34.0,30.2,30.36,East,90,0.0,0.0,86,0.00,,,0.00,pywws,2017-03-26 00:46:00,
2017-03-26 00:47:00,34.2,30.4,30.36,East,90,0.0,0.0,86,0.00,,,0.00,pywws,2017-03-26 00:47:00,
2017-03-26 00:48:00,34.2,30.4,30.37,NW,315,0.0,0.0,86,0.00,,,0.00,pywws,2017-03-26 00:48:00,
2017-03-26 00:49:00,34.2,30.4,30.37,NE,45,0.0,0.0,86,0.00,,,0.00,pywws,2017-03-26 00:49:00,
2017-03-26 00:50:00,34.2,30.4,30.37,NE,45,0.0,0.0,86,0.00,,,0.00,pywws,2017-03-26 00:50:00,
2017-03-26 00:51:00,34.0,30.2,30.36,North,0,0.0,0.0,86,0.00,,,0.00,pywws,2017-03-26 00:51:00,
2017-03-26 00:52:00,34.0,30.2,30.36,North,0,0.0,0.0,86,0.00,,,0.00,pywws,2017-03-26 00:52:00,
2017-03-26 02:03:00,34.0,30.2,30.36,North,0,0.0,0.0,86,0.00,,,0.00,pywws,2017-03-26 01:03:00,
2017-03-26 02:04:00,33.3,29.8,30.36,NE,45,0.0,0.0,87,0.00,,,0.00,pywws,2017-03-26 01:04:00,
2017-03-26 02:05:00,33.3,29.8,30.36,East,90,0.0,0.0,87,0.00,,,0.00,pywws,2017-03-26 01:05:00,
2017-03-26 02:06:00,33.3,29.8,30.36,East,90,0.0,0.0,87,0.00,,,0.00,pywws,2017-03-26 01:06:00,
2017-03-26 02:07:00,33.3,29.8,30.36,East,90,0.0,0.0,87,0.00,,,0.00,pywws,2017-03-26 01:07:00,
2017-03-26 02:08:00,33.1,29.6,30.36,East,90,0.0,0.0,87,0.00,,,0.00,pywws,2017-03-26 01:08:00,
2017-03-26 02:09:00,33.1,29.4,30.36,East,90,0.0,0.0,86,0.00,,,0.00,pywws,2017-03-26 01:09:00,
2017-03-26 02:10:00,33.1,29.4,30.36,East,90,0.0,0.0,86,0.00,,,0.00,pywws,2017-03-26 01:10:00,
2017-03-26 02:11:00,33.1,29.4,30.36,East,90,0.0,0.0,86,0.00,,,0.00,pywws,2017-03-26 01:11:00,
2017-03-26 02:12:00,33.1,29.4,30.36,East,90,0.0,0.0,86,0.00,,,0.00,pywws,2017-03-26 01:12:00,
2017-03-26 02:13:00,33.1,29.4,30.36,North,0,0.0,0.0,86,0.00,,,0.00,pywws,2017-03-26 01:13:00,
2017-03-26 02:14:00,33.1,29.4,30.36,East,90,0.0,0.0,86,0.00,,,0.00,pywws,2017-03-26 01:14:00,
2017-03-26 02:15:00,32.9,29.2,30.36,East,90,0.0,0.0,86,0.00,,,0.00,pywws,2017-03-26 01:15:00,
2017-03-26 02:16:00,32.9,29.2,30.35,East,90,0.0,0.0,86,0.00,,,0.00,pywws,2017-03-26 01:16:00,
2017-03-26 02:17:00,32.9,29.2,30.36,East,90,0.0,0.0,86,0.00,,,0.00,pywws,2017-03-26 01:17:00,
2017-03-26 02:18:00,32.9,29.2,30.36,East,90,0.0,0.0,86,0.00,,,0.00,pywws,2017-03-26 01:18:00,
2017-03-26 02:19:00,32.7,29.0,30.36,North,0,0.0,0.0,86,0.00,,,0.00,pywws,2017-03-26 01:19:00,
2017-03-26 02:20:00,32.7,29.0,30.36,East,90,0.0,0.0,86,0.00,,,0.00,pywws,2017-03-26 01:20:00,
2017-03-26 02:21:00,32.7,29.0,30.35,East,90,0.0,0.0,86,0.00,,,0.00,pywws,2017-03-26 01:21:00,
2017-03-26 02:22:00,32.7,29.0,30.35,East,90,0.0,0.0,86,0.00,,,0.00,pywws,2017-03-26 01:22:00,
2017-03-26 02:23:00,32.7,29.0,30.36,East,90,0.0,0.0,86,0.00,,,0.00,pywws,2017-03-26 01:23:00,
2017-03-26 02:24:00,32.5,28.8,30.36,East,90,0.0,0.0,86,0.00,,,0.00,pywws,2017-03-26 01:24:00,
2017-03-26 02:25:00,32.5,28.8,30.36,East,90,0.0,0.0,86,0.00,,,0.00,pywws,2017-03-26 01:25:00,
2017-03-26 02:26:00,32.5,28.8,30.35,East,90,0.0,0.0,86,0.00,,,0.00,pywws,2017-03-26 01:26:00,
2017-03-26 02:27:00,32.5,28.8,30.35,East,90,0.0,0.0,86,0.00,,,0.00,pywws,2017-03-26 01:27:00,
2017-03-26 02:28:00,32.5,28.8,30.35,East,90,0.0,0.0,86,0.00,,,0.00,pywws,2017-03-26 01:28:00,
2017-03-26 02:29:00,32.5,28.8,30.35,East,90,0.0,0.0,86,0.00,,,0.00,pywws,2017-03-26 01:29:00,
2017-03-26 02:30:00,32.5,28.8,30.35,East,90,0.0,0.0,86,0.00,,,0.00,pywws,2017-03-26 01:30:00,
2017-03-26 02:31:00,32.5,28.8,30.35,East,90,0.0,0.0,86,0.00,,,0.00,pywws,2017-03-26 01:31:00,
2017-03-26 02:32:00,32.5,28.8,30.35,East,90,0.0,0.0,86,0.00,,,0.00,pywws,2017-03-26 01:32:00,
2017-03-26 02:33:00,32.5,28.8,30.35,East,90,0.0,0.0,86,0.00,,,0.00,pywws,2017-03-26 01:33:00,
2017-03-26 02:34:00,32.5,28.8,30.35,East,90,0.0,0.0,86,0.00,,,0.00,pywws,2017-03-26 01:34:00,
2017-03-26 02:35:00,32.5,28.8,30.36,East,90,0.0,0.0,86,0.00,,,0.00,pywws,2017-03-26 01:35:00,
2017-03-26 02:36:00,32.5,28.8,30.35,East,90,0.0,0.0,86,0.00,,,0.00,pywws,2017-03-26 01:36:00,
2017-03-26 02:37:00,32.5,28.8,30.35,East,90,0.0,0.0,86,0.00,,,0.00,pywws,2017-03-26 01:37:00,
2017-03-26 02:38:00,32.5,29.1,30.35,East,90,0.0,0.0,87,0.00,,,0.00,pywws,2017-03-26 01:38:00,
2017-03-26 02:39:00,32.5,29.1,30.36,East,90,0.0,0.0,87,0.00,,,0.00,pywws,2017-03-26 01:39:00,
2017-03-26 02:41:00,32.5,29.1,30.35,East,90,0.0,0.0,87,0.00,,,0.00,pywws,2017-03-26 01:41:00,
2017-03-26 02:42:00,32.5,29.1,30.35,East,90,0.0,0.0,87,0.00,,,0.00,pywws,2017-03-26 01:42:00,
2017-03-26 02:43:00,32.5,29.1,30.35,NNE,22,0.0,0.0,87,0.00,,,0.00,pywws,2017-03-26 01:43:00,
2017-03-26 02:44:00,32.5,29.1,30.35,North,0,0.0,0.0,87,0.00,,,0.00,pywws,2017-03-26 01:44:00,
2017-03-26 02:45:00,32.5,29.1,30.35,North,0,0.0,0.0,87,0.00,,,0.00,pywws,2017-03-26 01:45:00,
2017-03-26 02:46:00,32.5,29.1,30.35,NW,315,0.0,0.0,87,0.00,,,0.00,pywws,2017-03-26 01:46:00,
2017-03-26 02:47:00,32.5,29.1,30.35,NW,315,0.0,0.0,87,0.00,,,0.00,pywws,2017-03-26 01:47:00,
2017-03-26 02:48:00,32.5,29.1,30.35,North,0,0.0,0.0,87,0.00,,,0.00,pywws,2017-03-26 01:48:00,
2017-03-26 02:49:00,32.5,29.1,30.35,North,0,0.0,0.0,87,0.00,,,0.00,pywws,2017-03-26 01:49:00,
2017-03-26 02:50:00,32.5,29.1,30.35,NW,315,0.0,0.0,87,0.00,,,0.00,pywws,2017-03-26 01:50:00,
2017-03-26 02:51:00,32.5,29.1,30.36,NE,45,0.0,0.0,87,0.00,,,0.00,pywws,2017-03-26 01:51:00,
2017-03-26 02:52:00,32.5,29.1,30.35,NE,45,0.0,0.0,87,0.00,,,0.00,pywws,2017-03-26 01:52:00,
2017-03-26 03:02:00,32.5,29.1,30.35,NE,45,0.0,0.0,87,0.00,,,0.00,pywws,2017-03-26 02:02:00,
2017-03-26 03:03:00,32.5,29.1,30.35,NE,45,0.0,0.0,87,0.00,,,0.00,pywws,2017-03-26 02:03:00,
2017-03-26 03:04:00,32.5,29.1,30.34,NE,45,0.0,0.0,87,0.00,,,0.00,pywws,2017-03-26 02:04:00,
2017-03-26 03:05:00,32.4,28.9,30.35,East,90,0.0,0.0,87,0.00,,,0.00,pywws,2017-03-26 02:05:00,
2017-03-26 03:06:00,32.4,28.9,30.35,East,90,0.0,0.0,87,0.00,,,0.00,pywws,2017-03-26 02:06:00,
2017-03-26 03:07:00,32.4,28.9,30.35,East,90,0.0,0.0,87,0.00,,,0.00,pywws,2017-03-26 02:07:00,
2017-03-26 03:08:00,32.4,28.9,30.35,East,90,0.0,0.0,87,0.00,,,0.00,pywws,2017-03-26 02:08:00,
2017-03-26 03:09:00,32.4,28.9,30.35,East,90,0.0,0.0,87,0.00,,,0.00,pywws,2017-03-26 02:09:00,
2017-03-26 03:10:00,32.4,28.9,30.35,East,90,0.0,0.0,87,0.00,,,0.00,pywws,2017-03-26 02:10:00,
2017-03-26 03:11:00,32.4,28.9,30.35,East,90,0.0,0.0,87,0.00,,,0.00,pywws,2017-03-26 02:11:00,
2017-03-26 03:12:00,32.4,28.9,30.35,East,90,0.0,0.0,87,0.00,,,0.00,pywws,2017-03-26 02:12:00,
2017-03-26 03:13:00,32.4,28.9,30.34,East,90,0.0,0.0,87,0.00,,,0.00,pywws,2017-03-26 02:13:00,
2017-03-26 03:14:00,32.4,28.9,30.34,East,90,0.0,0.0,87,0.00,,,0.00,pywws,2017-03-26 02:14:00,
2017-03-26 03:15:00,32.4,28.9,30.35,East,90,0.0,0.0,87,0.00,,,0.00,pywws,2017-03-26 02:15:00,
2017-03-26 03:16:00,32.4,28.9,30.34,East,90,0.0,0.0,87,0.00,,,0.00,pywws,2017-03-26 02:16:00,
2017-03-26 03:17:00,32.5,29.1,30.35,East,90,0.0,0.0,87,0.00,,,0.00,pywws,2017-03-26 02:17:00,
2017-03-26 03:18:00,32.5,29.1,30.34,East,90,0.0,0.0,87,0.00,,,0.00,pywws,2017-03-26 02:18:00,
2017-03-26 03:19:00,32.5,29.1,30.34,East,90,0.0,0.0,87,0.00,,,0.00,pywws,2017-03-26 02:19:00,
2017-03-26 03:20:00,32.5,29.1,30.34,East,90,0.0,0.0,87,0.00,,,0.00,pywws,2017-03-26 02:20:00,
2017-03-26 03:21:00,32.5,29.1,30.34,East,90,0.0,0.0,87,0.00,,,0.00,pywws,2017-03-26 02:21:00,
2017-03-26 03:22:00,32.7,29.3,30.34,East,90,0.0,0.0,87,0.00,,,0.00,pywws,2017-03-26 02:22:00,
2017-03-26 03:23:00,32.7,29.6,30.34,East,90,0.0,0.0,88,0.00,,,0.00,pywws,2017-03-26 02:23:00,
2017-03-26 03:24:00,32.9,29.7,30.34,East,90,0.0,0.0,88,0.00,,,0.00,pywws,2017-03-26 02:24:00,
2017-03-26 03:25:00,32.9,29.7,30.34,SE,135,0.0,0.0,88,0.00,,,0.00,pywws,2017-03-26 02:25:00,
2017-03-26 03:26:00,33.1,29.9,30.34,East,90,0.0,0.0,88,0.00,,,0.00,pywws,2017-03-26 02:26:00,
2017-03-26 03:27:00,33.3,30.1,30.34,East,90,0.0,0.0,88,0.00,,,0.00,pywws,2017-03-26 02:27:00,
2017-03-26 03:28:00,33.3,30.1,30.34,East,90,0.0,0.0,88,0.00,,,0.00,pywws,2017-03-26 02:28:00,
2017-03-26 03:29:00,33.4,30.3,30.34,ESE,112,0.0,0.0,88,0.00,,,0.00,pywws,2017-03-26 02:29:00,
2017-03-26 03:30:00,33.4,30.3,30.34,East,90,0.0,0.0,88,0.00,,,0.00,pywws,2017-03-26 02:30:00,
2017-03-26 03:31:00,33.6,30.5,30.34,East,90,0.0,0.0,88,0.00,,,0.00,pywws,2017-03-26 02:31:00,
2017-03-26 03:32:00,33.8,30.3,30.34,SE,135,0.0,0.0,87,0.00,,,0.00,pywws,2017-03-26 02:32:00,
2017-03-26 03:33:00,33.8,30.3,30.34,SE,135,0.0,0.0,87,0.00,,,0.00,pywws,2017-03-26 02:33:00,
2017-03-26 03:34:00,33.8,30.3,30.34,SE,135,0.0,0.0,87,0.00,,,0.00,pywws,2017-03-26 02:34:00,
2017-03-26 03:35:00,34.0,30.5,30.34,East,90,0.0,0.7,87,0.00,,,0.00,pywws,2017-03-26 02:35:00,
2017-03-26 03:36:00,34.2,31.0,30.34,East,90,0.0,0.0,88,0.00,,,0.00,pywws,2017-03-26 02:36:00,
2017-03-26 03:37:00,34.2,31.0,30.34,East,90,0.0,0.0,88,0.00,,,0.00,pywws,2017-03-26 02:37:00,
2017-03-26 03:38:00,34.3,31.2,30.34,East,90,0.0,0.0,88,0.00,,,0.00,pywws,2017-03-26 02:38:00,
2017-03-26 03:39:00,34.5,31.3,30.34,SE,135,0.7,1.6,88,0.00,,,0.00,pywws,2017-03-26 02:39:00,
2017-03-26 03:40:00,34.7,31.5,30.34,SE,135,0.7,1.6,88,0.00,,,0.00,pywws,2017-03-26 02:40:00,
2017-03-26 03:41:00,34.7,31.5,30.34,East,90,0.7,1.6,88,0.00,,,0.00,pywws,2017-03-26 02:41:00,
2017-03-26 03:42:00,34.9,31.7,30.34,SE,135,0.7,1.6,88,0.00,,,0.00,pywws,2017-03-26 02:42:00,
2017-03-26 03:43:00,35.1,31.9,30.34,East,90,0.7,1.6,88,0.00,,,0.00,pywws,2017-03-26 02:43:00,
2017-03-26 03:44:00,35.2,32.0,30.34,East,90,0.0,1.6,88,0.00,,,0.00,pywws,2017-03-26 02:44:00,
2017-03-26 03:45:00,35.4,32.2,30.34,East,90,0.0,0.7,88,0.00,,,0.00,pywws,2017-03-26 02:45:00,
2017-03-26 03:46:00,35.6,32.1,30.34,East,90,0.0,0.7,87,0.00,,,0.00,pywws,2017-03-26 02:46:00,
2017-03-26 03:47:00,35.8,32.3,30.34,East,90,0.0,0.0,87,0.00,,,0.00,pywws,2017-03-26 02:47:00,
2017-03-26 03:48:00,36.0,32.5,30.34,East,90,0.0,0.0,87,0.00,,,0.00,pywws,2017-03-26 02:48:00,
2017-03-26 03:49:00,36.1,32.7,30.34,East,90,0.0,0.0,87,0.00,,,0.00,pywws,2017-03-26 02:49:00,
2017-03-26 03:50:00,36.1,32.7,30.34,NW,315,1.6,2.2,87,0.00,,,0.00,pywws,2017-03-26 02:50:00,
2017-03-26 03:51:00,36.0,32.5,30.33,NW,315,0.7,1.6,87,0.00,,,0.00,pywws,2017-03-26 02:51:00,
2017-03-26 03:52:00,35.8,32.3,30.34,NW,315,0.7,1.6,87,0.00,,,0.00,pywws,2017-03-26 02:52:00,
2017-03-26 04:02:00,35.6,32.1,30.34,NW,315,0.7,1.6,87,0.00,,,0.00,pywws,2017-03-26 03:02:00,
2017-03-26 04:03:00,34.3,30.6,30.34,East,90,0.0,0.0,86,0.00,,,0.00,pywws,2017-03-26 03:03:00,
2017-03-26 04:04:00,34.3,30.6,30.33,East,90,0.0,0.0,86,0.00,,,0.00,pywws,2017-03-26 03:04:00,
2017-03-26 04:05:00,34.3,30.6,30.34,East,90,0.0,0.0,86,0.00,,,0.00,pywws,2017-03-26 03:05:00,
2017-03-26 04:06:00,34.3,30.6,30.34,East,90,0.0,0.0,86,0.00,,,0.00,pywws,2017-03-26 03:06:00,
2017-03-26 04:07:00,34.2,30.4,30.34,SE,135,0.7,1.6,86,0.00,,,0.00,pywws,2017-03-26 03:07:00,
2017-03-26 04:08:00,34.2,30.4,30.34,East,90,0.7,1.6,86,0.00,,,0.00,pywws,2017-03-26 03:08:00,
2017-03-26 04:09:00,34.0,30.2,30.33,East,90,0.0,0.7,86,0.00,,,0.00,pywws,2017-03-26 03:09:00,
2017-03-26 04:10:00,34.0,30.2,30.34,East,90,0.0,0.7,86,0.00,,,0.00,pywws,2017-03-26 03:10:00,
2017-03-26 04:11:00,34.0,30.2,30.34,East,90,0.0,0.0,86,0.00,,,0.00,pywws,2017-03-26 03:11:00,
2017-03-26 04:12:00,34.0,30.2,30.33,East,90,0.0,0.0,86,0.00,,,0.00,pywws,2017-03-26 03:12:00,
2017-03-26 04:13:00,34.0,30.2,30.34,East,90,0.0,0.0,86,0.00,,,0.00,pywws,2017-03-26 03:13:00,
2017-03-26 04:14:00,34.0,30.2,30.34,East,90,0.0,0.0,86,0.00,,,0.00,pywws,2017-03-26 03:14:00,
2017-03-26 04:15:00,34.0,30.2,30.33,East,90,0.0,0.0,86,0.00,,,0.00,pywws,2017-03-26 03:15:00,
2017-03-26 04:16:00,34.0,30.2,30.33,East,90,0.0,0.0,86,0.00,,,0.00,pywws,2017-03-26 03:16:00,
2017-03-26 04:17:00,34.0,30.2,30.34,East,90,0.0,0.7,86,0.00,,,0.00,pywws,2017-03-26 03:17:00,
2017-03-26 04:18:00,34.2,30.4,30.33,SE,135,0.7,1.6,86,0.00,,,0.00,pywws,2017-03-26 03:18:00,
2017-03-26 04:19:00,34.3,30.6,30.33,SE,135,0.0,0.7,86,0.00,,,0.00,pywws,2017-03-26 03:19:00,
2017-03-26 04:20:00,34.3,30.6,30.33,SE,135,0.0,0.7,86,0.00,,,0.00,pywws,2017-03-26 03:20:00,
2017-03-26 04:21:00,34.3,30.6,30.33,NE,45,0.0,0.7,86,0.00,,,0.00,pywws,2017-03-26 03:21:00,
2017-03-26 04:22:00,34.3,30.6,30.33,East,90,0.0,0.7,86,0.00,,,0.00,pywws,2017-03-26 03:22:00,
2017-03-26 04:23:00,34.5,30.8,30.33,East,90,0.0,0.0,86,0.00,,,0.00,pywws,2017-03-26 03:23:00,
2017-03-26 04:24:00,34.7,30.9,30.33,East,90,0.0,0.7,86,0.00,,,0.00,pywws,2017-03-26 03:24:00,
2017-03-26 04:25:00,34.7,30.9,30.33,East,90,0.0,0.7,86,0.00,,,0.00,pywws,2017-03-26 03:25:00,
2017-03-26 04:26:00,34.7,30.9,30.33,East,90,0.7,1.6,86,0.00,,,0.00,pywws,2017-03-26 03:26:00,
2017-03-26 04:27:00,34.9,31.1,30.33,SE,135,0.7,1.6,86,0.00,,,0.00,pywws,2017-03-26 03:27:00,
2017-03-26 04:28:00,35.1,31.3,30.33,East,90,0.7,1.6,86,0.00,,,0.00,pywws,2017-03-26 03:28:00,
2017-03-26 04:29:00,35.1,31.3,30.33,East,90,0.7,1.6,86,0.00,,,0.00,pywws,2017-03-26 03:29:00,
2017-03-26 04:30:00,35.2,31.5,30.33,SE,135,0.7,1.6,86,0.00,,,0.00,pywws,2017-03-26 03:30:00,
2017-03-26 04:31:00,35.4,31.9,30.33,SE,135,0.7,1.6,87,0.00,,,0.00,pywws,2017-03-26 03:31:00,
2017-03-26 04:32:00,35.6,31.8,30.33,East,90,0.7,1.6,86,0.00,,,0.00,pywws,2017-03-26 03:32:00,
2017-03-26 04:33:00,35.6,31.8,30.33,East,90,0.7,1.6,86,0.00,,,0.00,pywws,2017-03-26 03:33:00,
2017-03-26 04:34:00,35.6,31.8,30.33,East,90,0.0,0.7,86,0.00,,,0.00,pywws,2017-03-26 03:34:00,
2017-03-26 04:35:00,36.0,32.2,30.33,East,90,0.0,0.0,86,0.00,,,0.00,pywws,2017-03-26 03:35:00,
2017-03-26 04:36:00,36.1,32.4,30.33,East,90,0.0,0.0,86,0.00,,,0.00,pywws,2017-03-26 03:36:00,
2017-03-26 04:37:00,36.3,32.5,30.33,East,90,0.0,0.0,86,0.00,,,0.00,pywws,2017-03-26 03:37:00,
2017-03-26 04:38:00,36.3,32.5,30.33,East,90,0.0,0.0,86,0.00,,,0.00,pywws,2017-03-26 03:38:00,
2017-03-26 04:39:00,36.3,32.5,30.33,East,90,0.0,0.0,86,0.00,,,0.00,pywws,2017-03-26 03:39:00,
2017-03-26 04:40:00,36.3,32.5,30.32,East,90,0.0,0.0,86,0.00,,,0.00,pywws,2017-03-26 03:40:00,
2017-03-26 04:41:00,36.3,32.5,30.32,East,90,0.0,0.0,86,0.00,,,0.00,pywws,2017-03-26 03:41:00,
2017-03-26 04:42:00,36.1,32.4,30.32,East,90,0.0,0.0,86,0.00,,,0.00,pywws,2017-03-26 03:42:00,
2017-03-26 04:43:00,36.0,32.2,30.32,East,90,0.0,0.0,86,0.00,,,0.00,pywws,2017-03-26 03:43:00,
2017-03-26 04:44:00,35.8,32.0,30.32,East,90,0.0,0.0,86,0.00,,,0.00,pywws,2017-03-26 03:44:00,
2017-03-26 04:45:00,35.8,32.0,30.32,East,90,0.0,0.0,86,0.00,,,0.00,pywws,2017-03-26 03:45:00,
2017-03-26 04:46:00,35.6,31.8,30.33,East,90,0.0,0.0,86,0.00,,,0.00,pywws,2017-03-26 03:46:00,
2017-03-26 04:47:00,35.2,31.5,30.32,East,90,0.0,0.0,86,0.00,,,0.00,pywws,2017-03-26 03:47:00,
2017-03-26 04:48:00,35.1,31.3,30.32,East,90,0.0,0.0,86,0.00,,,0.00,pywws,2017-03-26 03:48:00,
2017-03-26 04:49:00,35.1,31.3,30.32,East,90,0.0,0.0,86,0.00,,,0.00,pywws,2017-03-26 03:49:00,
2017-03-26 04:50:00,34.9,31.1,30.32,East,90,0.0,0.0,86,0.00,,,0.00,pywws,2017-03-26 03:50:00,
2017-03-26 04:51:00,34.9,31.1,30.32,East,90,0.0,0.0,86,0.00,,,0.00,pywws,2017-03-26 03:51:00,
2017-03-26 04:52:00,34.7,30.9,30.32,East,90,0.0,0.0,86,0.00,,,0.00,pywws,2017-03-26 03:52:00,
2017-03-26 05:02:00,35.1,31.3,30.32,NE,45,0.0,0.0,86,0.00,,,0.00,pywws,2017-03-26 04:02:00,
2017-03-26 05:03:00,34.7,30.9,30.32,East,90,0.0,0.0,86,0.00,,,0.00,pywws,2017-03-26 04:03:00,
2017-03-26 05:04:00,35.2,31.5,30.32,South,180,0.0,0.0,86,0.00,,,0.00,pywws,2017-03-26 04:04:00,
2017-03-26 05:05:00,35.4,31.7,30.32,East,90,0.0,0.0,86,0.00,,,0.00,pywws,2017-03-26 04:05:00,
2017-03-26 05:06:00,35.4,31.7,30.32,East,90,0.0,0.7,86,0.00,,,0.00,pywws,2017-03-26 04:06:00,
2017-03-26 05:07:00,35.4,31.7,30.32,East,90,0.0,0.0,86,0.00,,,0.00,pywws,2017-03-26 04:07:00,
2017-03-26 05:08:00,35.6,31.8,30.32,East,90,0.0,0.0,86,0.00,,,0.00,pywws,2017-03-26 04:08:00,
2017-03-26 05:09:00,35.6,31.8,30.32,SE,135,0.0,0.0,86,0.00,,,0.00,pywws,2017-03-26 04:09:00,
2017-03-26 05:10:00,35.8,32.0,30.32,East,90,0.0,0.0,86,0.00,,,0.00,pywws,2017-03-26 04:10:00,
2017-03-26 05:11:00,35.8,32.0,30.32,East,90,0.0,0.0,86,0.00,,,0.00,pywws,2017-03-26 04:11:00,
2017-03-26 05:12:00,36.0,32.2,30.32,SE,135,0.0,0.0,86,0.00,,,0.00,pywws,2017-03-26 04:12:00,
2017-03-26 05:13:00,36.0,32.2,30.31,East,90,0.0,0.0,86,0.00,,,0.00,pywws,2017-03-26 04:13:00,
2017-03-26 05:14:00,36.1,32.4,30.32,East,90,0.0,0.0,86,0.00,,,0.00,pywws,2017-03-26 04:14:00,
2017-03-26 05:15:00,36.1,32.4,30.31,East,90,0.0,0.0,86,0.00,,,0.00,pywws,2017-03-26 04:15:00,
2017-03-26 05:16:00,36.1,32.4,30.31,East,90,0.0,0.0,86,0.00,,,0.00,pywws,2017-03-26 04:16:00,
2017-03-26 05:17:00,36.3,32.5,30.31,East,90,0.0,0.0,86,0.00,,,0.00,pywws,2017-03-26 04:17:00,
2017-03-26 05:18:00,36.3,32.5,30.32,East,90,0.0,0.0,86,0.00,,,0.00,pywws,2017-03-26 04:18:00,
2017-03-26 05:19:00,36.3,32.5,30.32,East,90,0.0,0.0,86,0.00,,,0.00,pywws,2017-03-26 04:19:00,
2017-03-26 05:20:00,36.3,32.5,30.32,East,90,0.0,0.0,86,0.00,,,0.00,pywws,2017-03-26 04:20:00,
2017-03-26 05:21:00,36.3,32.5,30.32,East,90,0.0,2.2,86,0.00,,,0.00,pywws,2017-03-26 04:21:00,
2017-03-26 05:22:00,36.5,32.7,30.31,SE,135,0.7,1.6,86,0.00,,,0.00,pywws,2017-03-26 04:22:00,
2017-03-26 05:23:00,36.5,32.7,30.32,East,90,0.7,1.6,86,0.00,,,0.00,pywws,2017-03-26 04:23:00,
2017-03-26 05:24:00,36.7,33.2,30.32,East,90,0.7,2.2,87,0.00,,,0.00,pywws,2017-03-26 04:24:00,
2017-03-26 05:25:00,36.9,33.4,30.31,East,90,1.6,3.1,87,0.00,,,0.00,pywws,2017-03-26 04:25:00,
2017-03-26 05:26:00,37.0,33.5,30.31,East,90,0.7,3.1,87,0.00,,,0.00,pywws,2017-03-26 04:26:00,
2017-03-26 05:27:00,37.2,33.7,30.31,NE,45,0.7,2.2,87,0.00,,,0.00,pywws,2017-03-26 04:27:00,
2017-03-26 05:28:00,37.4,35.0,30.31,East,90,0.7,1.6,91,0.00,,,0.00,pywws,2017-03-26 04:28:00,
2017-03-26 05:29:00,37.6,35.5,30.31,East,90,0.7,1.6,92,0.00,,,0.00,pywws,2017-03-26 04:29:00,
2017-03-26 05:30:00,37.8,35.6,30.31,East,90,0.0,0.7,92,0.00,,,0.00,pywws,2017-03-26 04:30:00,
2017-03-26 05:31:00,37.9,35.8,30.31,SE,135,0.0,1.6,92,0.00,,,0.00,pywws,2017-03-26 04:31:00,
2017-03-26 05:32:00,38.1,36.0,30.31,East,90,1.6,2.2,92,0.00,,,0.00,pywws,2017-03-26 04:32:00,
2017-03-26 05:33:00,38.1,36.0,30.31,SE,135,1.6,2.2,92,0.00,,,0.00,pywws,2017-03-26 04:33:00,
2017-03-26 05:34:00,38.3,36.2,30.32,East,90,0.7,2.2,92,0.00,,,0.00,pywws,2017-03-26 04:34:00,
2017-03-26 05:35:00,38.5,36.6,30.32,SE,135,1.6,3.1,93,0.00,,,0.00,pywws,2017-03-26 04:35:00,
2017-03-26 05:36:00,38.7,36.8,30.31,SE,135,1.6,2.2,93,0.00,,,0.00,pywws,2017-03-26 04:36:00,
2017-03-26 05:37:00,38.8,37.0,30.32,East,90,0.7,2.2,93,0.00,,,0.00,pywws,2017-03-26 04:37:00,
2017-03-26 05:38:00,38.8,37.0,30.31,East,90,1.6,2.2,93,0.00,,,0.00,pywws,2017-03-26 04:38:00,
2017-03-26 05:39:00,39.0,37.2,30.31,SE,135,1.6,3.1,93,0.00,,,0.00,pywws,2017-03-26 04:39:00,
2017-03-26 05:40:00,39.2,37.3,30.31,East,90,0.7,1.6,93,0.00,,,0.00,pywws,2017-03-26 04:40:00,
2017-03-26 05:41:00,39.4,37.5,30.31,SE,135,1.6,2.2,93,0.00,,,0.00,pywws,2017-03-26 04:41:00,
2017-03-26 05:42:00,39.4,37.5,30.32,East,90,1.6,3.1,93,0.00,,,0.00,pywws,2017-03-26 04:42:00,
2017-03-26 05:43:00,39.6,37.7,30.31,East,90,1.6,1.6,93,0.00,,,0.00,pywws,2017-03-26 04:43:00,
2017-03-26 05:44:00,39.7,37.9,30.32,East,90,0.7,2.2,93,0.00,,,0.00,pywws,2017-03-26 04:44:00,
2017-03-26 05:45:00,39.7,37.9,30.31,East,90,1.6,2.2,93,0.00,,,0.00,pywws,2017-03-26 04:45:00,
2017-03-26 05:46:00,39.7,37.9,30.31,SE,135,1.6,2.2,93,0.00,,,0.00,pywws,2017-03-26 04:46:00,
2017-03-26 05:47:00,39.9,38.1,30.31,East,90,1.6,2.2,93,0.00,,,0.00,pywws,2017-03-26 04:47:00,
2017-03-26 05:48:00,39.9,38.1,30.31,SE,135,0.7,2.2,93,0.00,,,0.00,pywws,2017-03-26 04:48:00,
2017-03-26 05:49:00,39.9,38.1,30.31,NE,45,1.6,2.2,93,0.00,,,0.00,pywws,2017-03-26 04:49:00,
2017-03-26 05:50:00,40.1,38.2,30.31,East,90,1.6,3.1,93,0.00,,,0.00,pywws,2017-03-26 04:50:00,
2017-03-26 05:51:00,40.1,38.5,30.31,East,90,0.7,2.2,94,0.00,,,0.00,pywws,2017-03-26 04:51:00,
2017-03-26 05:52:00,40.3,38.4,30.31,SE,135,1.6,2.2,93,0.00,,,0.00,pywws,2017-03-26 04:52:00,
2017-03-26 05:53:00,40.3,38.4,30.31,East,90,1.6,3.1,93,0.00,,,0.00,pywws,2017-03-26 04:53:00,
2017-03-26 05:54:00,40.3,38.4,30.31,East,90,2.2,3.8,93,0.00,,,0.00,pywws,2017-03-26 04:54:00,
2017-03-26 06:04:00,40.5,38.6,30.31,East,90,1.6,2.2,93,0.00,,,0.00,pywws,2017-03-26 05:04:00,
2017-03-26 06:05:00,41.2,39.3,30.32,East,90,1.6,3.1,93,0.00,,,0.00,pywws,2017-03-26 05:05:00,
2017-03-26 06:06:00,41.4,39.5,30.32,East,90,0.7,2.2,93,0.00,,,0.00,pywws,2017-03-26 05:06:00,
2017-03-26 06:07:00,41.4,39.5,30.32,East,90,0.7,1.6,93,0.00,,,0.00,pywws,2017-03-26 05:07:00,
2017-03-26 06:08:00,41.5,39.7,30.32,NE,45,1.6,2.2,93,0.00,,,0.00,pywws,2017-03-26 05:08:00,
2017-03-26 06:09:00,41.5,39.7,30.31,East,90,0.7,2.2,93,0.00,,,0.00,pywws,2017-03-26 05:09:00,
2017-03-26 06:10:00,41.5,39.7,30.32,East,90,0.7,1.6,93,0.00,,,0.00,pywws,2017-03-26 05:10:00,
2017-03-26 06:11:00,41.5,39.7,30.31,East,90,0.7,1.6,93,0.00,,,0.00,pywws,2017-03-26 05:11:00,
2017-03-26 06:12:00,41.5,39.4,30.31,SE,135,0.7,2.2,92,0.00,,,0.00,pywws,2017-03-26 05:12:00,
2017-03-26 06:13:00,41.5,39.4,30.31,SE,135,1.6,3.8,92,0.00,,,0.00,pywws,2017-03-26 05:13:00,
2017-03-26 06:14:00,41.5,39.4,30.32,SE,135,1.6,2.2,92,0.00,,,0.00,pywws,2017-03-26 05:14:00,
2017-03-26 06:15:00,41.5,39.4,30.31,SE,135,0.7,2.2,92,0.00,,,0.00,pywws,2017-03-26 05:15:00,
2017-03-26 06:16:00,41.5,39.4,30.31,East,90,1.6,3.1,92,0.00,,,0.00,pywws,2017-03-26 05:16:00,
2017-03-26 06:17:00,41.5,39.4,30.31,East,90,0.7,1.6,92,0.00,,,0.00,pywws,2017-03-26 05:17:00,
2017-03-26 06:18:00,41.7,39.6,30.32,SE,135,1.6,2.2,92,0.00,,,0.00,pywws,2017-03-26 05:18:00,
2017-03-26 06:19:00,41.7,39.6,30.31,SE,135,1.6,3.1,92,0.00,,,0.00,pywws,2017-03-26 05:19:00,
2017-03-26 06:20:00,41.7,39.6,30.31,SE,135,0.0,1.6,92,0.00,,,0.00,pywws,2017-03-26 05:20:00,
2017-03-26 06:22:00,41.9,39.7,30.31,East,90,0.7,3.1,92,0.00,,,0.00,pywws,2017-03-26 05:22:00,
2017-03-26 06:23:00,41.7,39.6,30.31,East,90,0.7,2.2,92,0.00,,,0.00,pywws,2017-03-26 05:23:00,
2017-03-26 06:25:00,41.9,39.7,30.31,East,90,0.0,0.0,92,0.00,,,0.00,pywws,2017-03-26 05:25:00,
2017-03-26 06:26:00,41.7,39.6,30.31,SE,135,0.7,1.6,92,0.00,,,0.00,pywws,2017-03-26 05:26:00,
2017-03-26 06:27:00,41.7,39.6,30.31,SE,135,0.7,2.2,92,0.00,,,0.00,pywws,2017-03-26 05:27:00,
2017-03-26 06:28:00,41.7,39.6,30.31,East,90,0.0,0.0,92,0.00,,,0.00,pywws,2017-03-26 05:28:00,
2017-03-26 06:29:00,41.7,39.6,30.31,East,90,0.0,0.7,92,0.00,,,0.00,pywws,2017-03-26 05:29:00,
2017-03-26 06:31:00,41.7,39.6,30.31,South,180,0.0,0.7,92,0.00,,,0.00,pywws,2017-03-26 05:31:00,
2017-03-26 06:32:00,41.7,39.6,30.31,East,90,0.0,0.7,92,0.00,,,0.00,pywws,2017-03-26 05:32:00,
2017-03-26 06:34:00,41.7,39.6,30.31,East,90,0.0,0.7,92,0.00,,,0.00,pywws,2017-03-26 05:34:00,
2017-03-26 06:35:00,41.7,39.6,30.31,East,90,0.0,0.7,92,0.00,,,0.00,pywws,2017-03-26 05:35:00,
2017-03-26 06:36:00,41.7,39.6,30.31,East,90,0.7,3.1,92,0.00,,,0.00,pywws,2017-03-26 05:36:00,
2017-03-26 06:37:00,41.7,39.6,30.31,SE,135,0.0,0.7,92,0.00,,,0.00,pywws,2017-03-26 05:37:00,
2017-03-26 06:38:00,41.7,39.6,30.31,East,90,0.0,0.7,92,0.00,,,0.00,pywws,2017-03-26 05:38:00,
2017-03-26 06:39:00,41.7,39.6,30.31,SSE,158,0.7,1.6,92,0.00,,,0.00,pywws,2017-03-26 05:39:00,
2017-03-26 06:40:00,41.7,39.6,30.31,East,90,0.7,1.6,92,0.00,,,0.00,pywws,2017-03-26 05:40:00,
2017-03-26 06:41:00,41.7,39.6,30.31,South,180,0.7,2.2,92,0.00,,,0.00,pywws,2017-03-26 05:41:00,
2017-03-26 06:42:00,41.7,39.6,30.31,SE,135,0.7,2.2,92,0.00,,,0.00,pywws,2017-03-26 05:42:00,
2017-03-26 06:43:00,41.7,39.6,30.32,South,180,0.7,2.2,92,0.00,,,0.00,pywws,2017-03-26 05:43:00,
2017-03-26 06:44:00,41.7,39.6,30.31,NE,45,0.7,2.2,92,0.00,,,0.00,pywws,2017-03-26 05:44:00,
2017-03-26 06:45:00,41.9,39.7,30.31,SE,135,1.6,2.2,92,0.00,,,0.00,pywws,2017-03-26 05:45:00,
2017-03-26 06:46:00,41.9,39.7,30.31,SE,135,0.7,2.2,92,0.00,,,0.00,pywws,2017-03-26 05:46:00,
2017-03-26 06:47:00,41.9,39.7,30.31,East,90,0.7,2.2,92,0.00,,,0.00,pywws,2017-03-26 05:47:00,
2017-03-26 06:48:00,41.9,39.7,30.31,East,90,0.7,2.2,92,0.00,,,0.00,pywws,2017-03-26 05:48:00,
2017-03-26 06:49:00,42.1,39.9,30.31,SE,135,1.6,2.2,92,0.00,,,0.00,pywws,2017-03-26 05:49:00,
2017-03-26 06:50:00,42.1,39.9,30.31,SE,135,1.6,2.2,92,0.00,,,0.00,pywws,2017-03-26 05:50:00,
2017-03-26 06:51:00,42.1,39.9,30.31,SE,135,0.7,2.2,92,0.00,,,0.00,pywws,2017-03-26 05:51:00,
2017-03-26 06:52:00,42.1,39.9,30.31,East,90,0.0,0.7,92,0.00,,,0.00,pywws,2017-03-26 05:52:00,
2017-03-26 07:02:00,41.9,39.7,30.31,East,90,0.0,0.0,92,0.00,,,0.00,pywws,2017-03-26 06:02:00,
2017-03-26 07:03:00,41.5,39.4,30.32,ENE,68,0.7,1.6,92,0.00,,,0.00,pywws,2017-03-26 06:03:00,
2017-03-26 07:04:00,41.4,39.2,30.32,East,90,0.7,1.6,92,0.00,,,0.00,pywws,2017-03-26 06:04:00,
2017-03-26 07:05:00,41.4,39.2,30.32,SE,135,0.7,1.6,92,0.00,,,0.00,pywws,2017-03-26 06:05:00,
2017-03-26 07:06:00,41.4,39.2,30.32,East,90,0.7,2.2,92,0.00,,,0.00,pywws,2017-03-26 06:06:00,
2017-03-26 07:07:00,41.4,39.2,30.32,South,180,0.7,1.6,92,0.00,,,0.00,pywws,2017-03-26 06:07:00,
2017-03-26 07:08:00,41.4,39.2,30.32,East,90,0.0,1.6,92,0.00,,,0.00,pywws,2017-03-26 06:08:00,
2017-03-26 07:09:00,41.4,39.2,30.32,East,90,0.0,1.6,92,0.00,,,0.00,pywws,2017-03-26 06:09:00,
2017-03-26 07:10:00,41.2,39.0,30.32,East,90,0.7,1.6,92,0.00,,,0.00,pywws,2017-03-26 06:10:00,
2017-03-26 07:11:00,41.2,39.0,30.32,East,90,0.0,1.6,92,0.00,,,0.00,pywws,2017-03-26 06:11:00,
2017-03-26 07:12:00,41.2,39.0,30.32,East,90,0.7,2.2,92,0.00,,,0.00,pywws,2017-03-26 06:12:00,
2017-03-26 07:13:00,41.2,39.0,30.32,East,90,0.0,0.7,92,0.00,,,0.00,pywws,2017-03-26 06:13:00,
2017-03-26 07:14:00,41.0,38.9,30.32,East,90,0.0,0.7,92,0.00,,,0.00,pywws,2017-03-26 06:14:00,
2017-03-26 07:15:00,41.0,38.9,30.32,East,90,0.0,0.7,92,0.00,,,0.00,pywws,2017-03-26 06:15:00,
2017-03-26 07:16:00,40.8,38.7,30.32,East,90,0.0,0.7,92,0.00,,,0.00,pywws,2017-03-26 06:16:00,
2017-03-26 07:17:00,40.6,38.5,30.32,East,90,0.0,0.0,92,0.00,,,0.00,pywws,2017-03-26 06:17:00,
2017-03-26 07:18:00,40.6,38.5,30.32,East,90,0.0,0.0,92,0.00,,,0.00,pywws,2017-03-26 06:18:00,
2017-03-26 07:19:00,40.5,38.3,30.32,East,90,0.0,0.0,92,0.00,,,0.00,pywws,2017-03-26 06:19:00,
2017-03-26 07:20:00,40.5,38.3,30.32,East,90,0.0,0.0,92,0.00,,,0.00,pywws,2017-03-26 06:20:00,
2017-03-26 07:21:00,40.3,38.1,30.32,East,90,0.0,0.0,92,0.00,,,0.00,pywws,2017-03-26 06:21:00,
2017-03-26 07:22:00,40.3,38.1,30.32,East,90,0.0,0.0,92,0.00,,,0.00,pywws,2017-03-26 06:22:00,
2017-03-26 07:23:00,40.1,38.0,30.32,East,90,0.0,0.7,92,0.00,,,0.00,pywws,2017-03-26 06:23:00,
2017-03-26 07:24:00,39.9,37.8,30.32,SE,135,0.0,0.7,92,0.00,,,0.00,pywws,2017-03-26 06:24:00,
2017-03-26 07:25:00,39.9,37.8,30.32,South,180,0.0,0.7,92,0.00,,,0.00,pywws,2017-03-26 06:25:00,
2017-03-26 07:26:00,39.9,37.8,30.32,SW,225,0.0,0.7,92,0.00,,,0.00,pywws,2017-03-26 06:26:00,
2017-03-26 07:27:00,39.9,37.8,30.32,SE,135,0.0,0.7,92,0.00,,,0.00,pywws,2017-03-26 06:27:00,
2017-03-26 07:28:00,39.7,37.6,30.32,East,90,0.0,0.0,92,0.00,,,0.00,pywws,2017-03-26 06:28:00,
2017-03-26 07:29:00,39.7,37.6,30.32,SE,135,0.0,0.0,92,0.00,,,0.00,pywws,2017-03-26 06:29:00,
2017-03-26 07:30:00,39.7,37.6,30.32,SE,135,2.2,3.8,92,0.00,,,0.00,pywws,2017-03-26 06:30:00,
2017-03-26 07:31:00,39.7,37.6,30.32,SE,135,0.7,1.6,92,0.00,,,0.00,pywws,2017-03-26 06:31:00,
2017-03-26 07:32:00,39.7,37.6,30.32,NE,45,0.0,0.7,92,0.00,,,0.00,pywws,2017-03-26 06:32:00,
2017-03-26 07:33:00,39.9,37.8,30.32,East,90,0.7,1.6,92,0.00,,,0.00,pywws,2017-03-26 06:33:00,
2017-03-26 07:34:00,39.9,37.8,30.32,East,90,0.0,0.7,92,0.00,,,0.00,pywws,2017-03-26 06:34:00,
2017-03-26 07:35:00,39.9,37.8,30.32,East,90,0.0,0.0,92,0.00,,,0.00,pywws,2017-03-26 06:35:00,
2017-03-26 07:36:00,39.9,37.8,30.32,East,90,0.0,0.0,92,0.00,,,0.00,pywws,2017-03-26 06:36:00,
2017-03-26 07:37:00,39.9,37.8,30.32,East,90,0.0,1.6,92,0.00,,,0.00,pywws,2017-03-26 06:37:00,
2017-03-26 07:38:00,39.9,37.8,30.32,SE,135,0.7,1.6,92,0.00,,,0.00,pywws,2017-03-26 06:38:00,
2017-03-26 07:39:00,40.1,38.0,30.32,East,90,0.0,1.6,92,0.00,,,0.00,pywws,2017-03-26 06:39:00,
2017-03-26 07:40:00,40.1,38.2,30.32,East,90,0.0,1.6,93,0.00,,,0.00,pywws,2017-03-26 06:40:00,
2017-03-26 07:41:00,40.1,38.2,30.32,East,90,0.7,2.2,93,0.00,,,0.00,pywws,2017-03-26 06:41:00,
2017-03-26 07:42:00,40.3,38.4,30.32,SE,135,0.7,2.2,93,0.00,,,0.00,pywws,2017-03-26 06:42:00,
2017-03-26 07:43:00,40.3,38.4,30.32,SE,135,0.7,1.6,93,0.00,,,0.00,pywws,2017-03-26 06:43:00,
2017-03-26 07:44:00,40.3,38.4,30.32,SE,135,0.7,1.6,93,0.00,,,0.00,pywws,2017-03-26 06:44:00,
2017-03-26 07:45:00,40.5,38.6,30.32,SE,135,0.0,0.7,93,0.00,,,0.00,pywws,2017-03-26 06:45:00,
2017-03-26 07:46:00,40.5,38.6,30.32,SE,135,0.0,0.7,93,0.00,,,0.00,pywws,2017-03-26 06:46:00,
2017-03-26 07:47:00,40.5,38.6,30.32,NE,45,0.0,0.7,93,0.00,,,0.00,pywws,2017-03-26 06:47:00,
2017-03-26 07:48:00,40.6,38.8,30.32,East,90,0.0,0.0,93,0.00,,,0.00,pywws,2017-03-26 06:48:00,
2017-03-26 07:49:00,40.6,38.8,30.32,East,90,0.0,0.0,93,0.00,,,0.00,pywws,2017-03-26 06:49:00,
2017-03-26 07:50:00,40.6,38.8,30.32,East,90,0.0,0.0,93,0.00,,,0.00,pywws,2017-03-26 06:50:00,
2017-03-26 07:51:00,40.6,38.8,30.32,East,90,0.0,0.0,93,0.00,,,0.00,pywws,2017-03-26 06:51:00,
2017-03-26 07:52:00,40.6,38.8,30.32,East,90,0.0,0.0,93,0.00,,,0.00,pywws,2017-03-26 06:52:00,
2017-03-26 07:53:00,40.6,38.8,30.31,East,90,0.0,0.0,93,0.00,,,0.00,pywws,2017-03-26 06:53:00,
2017-03-26 08:03:00,40.5,38.6,30.32,East,90,0.0,0.0,93,0.00,,,0.00,pywws,2017-03-26 07:03:00,
2017-03-26 08:04:00,40.3,38.4,30.32,East,90,0.0,0.0,93,0.00,,,0.00,pywws,2017-03-26 07:04:00,
2017-03-26 08:05:00,40.3,38.4,30.32,East,90,0.0,0.0,93,0.00,,,0.00,pywws,2017-03-26 07:05:00,
2017-03-26 08:06:00,40.5,38.6,30.32,East,90,0.0,0.0,93,0.00,,,0.00,pywws,2017-03-26 07:06:00,
2017-03-26 08:07:00,40.5,38.6,30.32,East,90,0.0,0.0,93,0.00,,,0.00,pywws,2017-03-26 07:07:00,
2017-03-26 08:08:00,40.5,38.6,30.32,East,90,0.0,0.0,93,0.00,,,0.00,pywws,2017-03-26 07:08:00,
2017-03-26 08:09:00,40.5,38.6,30.32,East,90,0.0,0.0,93,0.00,,,0.00,pywws,2017-03-26 07:09:00,
2017-03-26 08:10:00,40.6,38.8,30.32,South,180,0.0,0.0,93,0.00,,,0.00,pywws,2017-03-26 07:10:00,
2017-03-26 08:11:00,40.6,38.8,30.32,SE,135,0.0,0.0,93,0.00,,,0.00,pywws,2017-03-26 07:11:00,
2017-03-26 08:12:00,40.6,38.8,30.32,SE,135,0.0,0.0,93,0.00,,,0.00,pywws,2017-03-26 07:12:00,
2017-03-26 08:13:00,40.6,38.8,30.32,SE,135,0.0,0.0,93,0.00,,,0.00,pywws,2017-03-26 07:13:00,
2017-03-26 08:14:00,40.8,39.2,30.32,SE,135,0.0,0.0,94,0.00,,,0.00,pywws,2017-03-26 07:14:00,
2017-03-26 08:15:00,40.8,39.2,30.32,SE,135,0.0,0.0,94,0.00,,,0.00,pywws,2017-03-26 07:15:00,
2017-03-26 08:16:00,40.8,39.2,30.32,SE,135,0.0,0.0,94,0.00,,,0.00,pywws,2017-03-26 07:16:00,
2017-03-26 08:17:00,41.0,39.1,30.32,SE,135,0.0,0.0,93,0.00,,,0.00,pywws,2017-03-26 07:17:00,
2017-03-26 08:18:00,41.0,39.1,30.32,SE,135,0.0,0.0,93,0.00,,,0.00,pywws,2017-03-26 07:18:00,
2017-03-26 08:19:00,41.0,39.1,30.32,SE,135,0.0,0.0,93,0.00,,,0.00,pywws,2017-03-26 07:19:00,
2017-03-26 08:20:00,41.0,39.1,30.32,SE,135,0.0,0.0,93,0.00,,,0.00,pywws,2017-03-26 07:20:00,
2017-03-26 08:21:00,41.0,39.1,30.32,East,90,0.0,0.0,93,0.00,,,0.00,pywws,2017-03-26 07:21:00,
2017-03-26 08:22:00,41.0,39.1,30.32,East,90,0.0,0.0,93,0.00,,,0.00,pywws,2017-03-26 07:22:00,
2017-03-26 08:23:00,41.2,39.3,30.32,East,90,0.0,0.0,93,0.00,,,0.00,pywws,2017-03-26 07:23:00,
2017-03-26 08:24:00,41.2,39.3,30.32,East,90,0.0,0.0,93,0.00,,,0.00,pywws,2017-03-26 07:24:00,
2017-03-26 08:25:00,41.2,39.3,30.32,East,90,0.0,0.0,93,0.00,,,0.00,pywws,2017-03-26 07:25:00,
2017-03-26 08:26:00,41.2,39.3,30.32,ENE,68,0.0,0.0,93,0.00,,,0.00,pywws,2017-03-26 07:26:00,
2017-03-26 08:27:00,41.4,39.5,30.32,East,90,0.0,0.0,93,0.00,,,0.00,pywws,2017-03-26 07:27:00,
2017-03-26 08:28:00,41.5,39.7,30.32,NE,45,0.0,0.7,93,0.00,,,0.00,pywws,2017-03-26 07:28:00,
2017-03-26 08:30:00,41.7,39.8,30.32,East,90,0.0,0.7,93,0.00,,,0.00,pywws,2017-03-26 07:30:00,
2017-03-26 08:31:00,41.7,39.8,30.32,East,90,0.0,0.0,93,0.00,,,0.00,pywws,2017-03-26 07:31:00,
2017-03-26 08:32:00,41.9,40.0,30.32,SE,135,0.0,1.6,93,0.00,,,0.00,pywws,2017-03-26 07:32:00,
2017-03-26 08:33:00,42.1,40.2,30.32,SE,135,0.0,0.0,93,0.00,,,0.00,pywws,2017-03-26 07:33:00,
2017-03-26 08:34:00,42.1,40.2,30.32,SE,135,0.0,0.7,93,0.00,,,0.00,pywws,2017-03-26 07:34:00,
2017-03-26 08:35:00,42.1,40.2,30.32,SE,135,0.0,0.0,93,0.00,,,0.00,pywws,2017-03-26 07:35:00,
2017-03-26 08:36:00,42.3,40.4,30.32,SE,135,0.0,0.7,93,0.00,,,0.00,pywws,2017-03-26 07:36:00,
2017-03-26 08:37:00,42.3,40.4,30.32,SE,135,0.0,0.7,93,0.00,,,0.00,pywws,2017-03-26 07:37:00,
2017-03-26 08:38:00,42.3,40.4,30.32,SE,135,0.0,0.7,93,0.00,,,0.00,pywws,2017-03-26 07:38:00,
2017-03-26 08:39:00,42.4,40.6,30.32,NE,45,0.0,1.6,93,0.00,,,0.00,pywws,2017-03-26 07:39:00,
2017-03-26 08:40:00,42.4,40.6,30.32,NE,45,0.0,0.0,93,0.00,,,0.00,pywws,2017-03-26 07:40:00,
2017-03-26 08:41:00,42.6,40.7,30.32,North,0,0.0,0.0,93,0.00,,,0.00,pywws,2017-03-26 07:41:00,
2017-03-26 08:42:00,42.6,40.7,30.32,East,90,0.0,0.7,93,0.00,,,0.00,pywws,2017-03-26 07:42:00,
2017-03-26 08:43:00,42.6,40.7,30.32,East,90,0.0,0.0,93,0.00,,,0.00,pywws,2017-03-26 07:43:00,
2017-03-26 08:44:00,42.8,40.9,30.32,East,90,0.0,0.0,93,0.00,,,0.00,pywws,2017-03-26 07:44:00,
2017-03-26 08:45:00,42.8,40.9,30.32,East,90,0.0,0.0,93,0.00,,,0.00,pywws,2017-03-26 07:45:00,
2017-03-26 08:46:00,43.0,41.1,30.32,East,90,0.0,0.7,93,0.00,,,0.00,pywws,2017-03-26 07:46:00,
2017-03-26 08:47:00,43.0,41.1,30.32,ENE,68,0.0,0.7,93,0.00,,,0.00,pywws,2017-03-26 07:47:00,
2017-03-26 08:48:00,43.2,41.3,30.32,East,90,0.0,1.6,93,0.00,,,0.00,pywws,2017-03-26 07:48:00,
2017-03-26 08:49:00,43.2,41.3,30.32,East,90,0.0,0.7,93,0.00,,,0.00,pywws,2017-03-26 07:49:00,
2017-03-26 08:50:00,43.3,41.5,30.32,East,90,0.0,0.7,93,0.00,,,0.00,pywws,2017-03-26 07:50:00,
2017-03-26 08:51:00,43.5,41.6,30.32,East,90,0.0,0.0,93,0.00,,,0.00,pywws,2017-03-26 07:51:00,
2017-03-26 08:52:00,43.5,41.6,30.32,East,90,0.0,0.7,93,0.00,,,0.00,pywws,2017-03-26 07:52:00,
2017-03-26 09:02:00,43.7,41.8,30.32,East,90,0.0,0.7,93,0.00,,,0.00,pywws,2017-03-26 08:02:00,